sensor_id;sensor_type;location;lat;lon;timestamp;temperature;humidity
50907;DHT22;36882;27.680;85.304;2023-12-14T00:00:32;8.30;99.90
50907;DHT22;36882;27.680;85.304;2023-12-14T00:03:02;8.50;99.90
50907;DHT22;36882;27.680;85.304;2023-12-14T00:05:32;8.50;99.90
50907;DHT22;36882;27.680;85.304;2023-12-14T00:08:03;8.30;99.90
50907;DHT22;36882;27.680;85.304;2023-12-14T00:10:37;8.20;99.90
50907;DHT22;36882;27.680;85.304;2023-12-14T00:13:07;8.10;99.90
50907;DHT22;36882;27.680;85.304;2023-12-14T00:15:38;8.10;99.90
50907;DHT22;36882;27.680;85.304;2023-12-14T00:18:08;8.10;99.90
50907;DHT22;36882;27.680;85.304;2023-12-14T00:20:39;8.10;99.90
50907;DHT22;36882;27.680;85.304;2023-12-14T00:23:09;8.10;99.90
50907;DHT22;36882;27.680;85.304;2023-12-14T00:25:40;8.10;99.90
50907;DHT22;36882;27.680;85.304;2023-12-14T00:28:10;7.90;99.90
50907;DHT22;36882;27.680;85.304;2023-12-14T00:30:40;7.70;99.90
50907;DHT22;36882;27.680;85.304;2023-12-14T00:33:10;8.00;99.90
50907;DHT22;36882;27.680;85.304;2023-12-14T00:35:41;8.00;99.90
50907;DHT22;36882;27.680;85.304;2023-12-14T00:38:13;8.00;99.90
50907;DHT22;36882;27.680;85.304;2023-12-14T00:40:44;8.10;99.90
50907;DHT22;36882;27.680;85.304;2023-12-14T00:43:14;8.00;99.90
50907;DHT22;36882;27.680;85.304;2023-12-14T00:45:45;8.00;99.90
50907;DHT22;36882;27.680;85.304;2023-12-14T00:48:15;8.00;99.90
50907;DHT22;36882;27.680;85.304;2023-12-14T00:50:46;8.10;99.90
50907;DHT22;36882;27.680;85.304;2023-12-14T00:53:16;8.10;99.90
50907;DHT22;36882;27.680;85.304;2023-12-14T00:55:47;8.00;99.90
50907;DHT22;36882;27.680;85.304;2023-12-14T00:58:17;8.00;99.90
50907;DHT22;36882;27.680;85.304;2023-12-14T01:00:48;8.00;99.90
50907;DHT22;36882;27.680;85.304;2023-12-14T01:03:18;8.00;99.90
50907;DHT22;36882;27.680;85.304;2023-12-14T01:05:49;8.10;99.90
50907;DHT22;36882;27.680;85.304;2023-12-14T01:08:19;8.00;99.90
50907;DHT22;36882;27.680;85.304;2023-12-14T01:10:50;8.00;99.90
50907;DHT22;36882;27.680;85.304;2023-12-14T01:13:20;8.10;99.90
50907;DHT22;36882;27.680;85.304;2023-12-14T01:15:51;8.00;99.90
50907;DHT22;36882;27.680;85.304;2023-12-14T01:18:21;7.90;99.90
50907;DHT22;36882;27.680;85.304;2023-12-14T01:20:52;8.00;99.90
50907;DHT22;36882;27.680;85.304;2023-12-14T01:23:22;8.00;99.90
50907;DHT22;36882;27.680;85.304;2023-12-14T01:25:52;8.00;99.90
50907;DHT22;36882;27.680;85.304;2023-12-14T01:28:23;8.20;99.90
50907;DHT22;36882;27.680;85.304;2023-12-14T01:30:53;8.20;99.90
50907;DHT22;36882;27.680;85.304;2023-12-14T01:33:23;8.10;99.90
50907;DHT22;36882;27.680;85.304;2023-12-14T01:35:54;8.20;99.90
50907;DHT22;36882;27.680;85.304;2023-12-14T01:38:24;8.30;99.90
50907;DHT22;36882;27.680;85.304;2023-12-14T01:40:54;8.40;99.90
50907;DHT22;36882;27.680;85.304;2023-12-14T01:43:25;8.40;99.90
50907;DHT22;36882;27.680;85.304;2023-12-14T01:45:55;8.50;99.90
50907;DHT22;36882;27.680;85.304;2023-12-14T01:48:26;8.60;99.90
50907;DHT22;36882;27.680;85.304;2023-12-14T01:50:56;8.60;99.90
50907;DHT22;36882;27.680;85.304;2023-12-14T01:53:27;8.60;99.90
50907;DHT22;36882;27.680;85.304;2023-12-14T01:55:57;8.70;99.90
50907;DHT22;36882;27.680;85.304;2023-12-14T01:58:27;8.70;99.90
50907;DHT22;36882;27.680;85.304;2023-12-14T02:03:43;8.70;99.90
50907;DHT22;36882;27.680;85.304;2023-12-14T02:06:13;8.80;99.90
50907;DHT22;36882;27.680;85.304;2023-12-14T02:08:44;8.90;99.90
50907;DHT22;36882;27.680;85.304;2023-12-14T02:11:14;8.80;99.90
50907;DHT22;36882;27.680;85.304;2023-12-14T02:13:45;9.00;99.90
50907;DHT22;36882;27.680;85.304;2023-12-14T02:16:16;9.10;99.90
50907;DHT22;36882;27.680;85.304;2023-12-14T02:18:46;9.20;99.90
50907;DHT22;36882;27.680;85.304;2023-12-14T02:21:17;9.30;99.90
50907;DHT22;36882;27.680;85.304;2023-12-14T02:23:48;9.40;99.90
50907;DHT22;36882;27.680;85.304;2023-12-14T02:26:18;9.40;99.90
50907;DHT22;36882;27.680;85.304;2023-12-14T02:28:49;9.40;99.90
50907;DHT22;36882;27.680;85.304;2023-12-14T02:31:19;9.50;99.90
50907;DHT22;36882;27.680;85.304;2023-12-14T02:33:49;9.70;99.90
50907;DHT22;36882;27.680;85.304;2023-12-14T02:36:20;9.90;99.90
50907;DHT22;36882;27.680;85.304;2023-12-14T02:38:51;9.80;99.90
50907;DHT22;36882;27.680;85.304;2023-12-14T02:41:21;9.90;99.90
50907;DHT22;36882;27.680;85.304;2023-12-14T02:43:52;9.90;99.90
50907;DHT22;36882;27.680;85.304;2023-12-14T02:46:22;10.10;99.90
50907;DHT22;36882;27.680;85.304;2023-12-14T02:48:52;10.20;99.90
50907;DHT22;36882;27.680;85.304;2023-12-14T02:51:23;10.20;99.90
50907;DHT22;36882;27.680;85.304;2023-12-14T02:53:55;10.30;99.90
50907;DHT22;36882;27.680;85.304;2023-12-14T02:56:27;10.30;99.90
50907;DHT22;36882;27.680;85.304;2023-12-14T02:58:57;10.40;99.90
50907;DHT22;36882;27.680;85.304;2023-12-14T03:01:27;10.50;99.90
50907;DHT22;36882;27.680;85.304;2023-12-14T03:03:57;10.60;99.90
50907;DHT22;36882;27.680;85.304;2023-12-14T03:06:28;10.60;99.90
50907;DHT22;36882;27.680;85.304;2023-12-14T03:08:59;10.60;99.90
50907;DHT22;36882;27.680;85.304;2023-12-14T03:11:30;10.50;99.90
50907;DHT22;36882;27.680;85.304;2023-12-14T03:13:59;10.50;99.90
50907;DHT22;36882;27.680;85.304;2023-12-14T03:16:30;10.60;99.90
50907;DHT22;36882;27.680;85.304;2023-12-14T03:19:00;10.80;99.90
50907;DHT22;36882;27.680;85.304;2023-12-14T03:21:31;10.80;99.90
50907;DHT22;36882;27.680;85.304;2023-12-14T03:24:03;10.80;99.90
50907;DHT22;36882;27.680;85.304;2023-12-14T03:26:33;10.90;99.90
50907;DHT22;36882;27.680;85.304;2023-12-14T03:29:04;11.10;99.90
50907;DHT22;36882;27.680;85.304;2023-12-14T03:31:34;11.10;99.90
50907;DHT22;36882;27.680;85.304;2023-12-14T03:34:04;11.10;99.90
50907;DHT22;36882;27.680;85.304;2023-12-14T03:36:35;11.20;99.90
50907;DHT22;36882;27.680;85.304;2023-12-14T03:39:05;11.20;99.90
50907;DHT22;36882;27.680;85.304;2023-12-14T03:41:36;11.20;99.90
50907;DHT22;36882;27.680;85.304;2023-12-14T03:44:06;11.30;99.90
50907;DHT22;36882;27.680;85.304;2023-12-14T03:46:37;11.40;99.90
50907;DHT22;36882;27.680;85.304;2023-12-14T03:49:07;11.60;99.90
50907;DHT22;36882;27.680;85.304;2023-12-14T03:51:39;11.50;99.80
50907;DHT22;36882;27.680;85.304;2023-12-14T03:54:09;11.60;99.90
50907;DHT22;36882;27.680;85.304;2023-12-14T03:56:40;11.70;99.90
50907;DHT22;36882;27.680;85.304;2023-12-14T03:59:10;11.90;99.80
50907;DHT22;36882;27.680;85.304;2023-12-14T04:01:41;11.80;99.50
50907;DHT22;36882;27.680;85.304;2023-12-14T04:04:11;11.80;99.90
50907;DHT22;36882;27.680;85.304;2023-12-14T04:06:41;12.10;99.50
50907;DHT22;36882;27.680;85.304;2023-12-14T04:09:12;11.90;99.30
50907;DHT22;36882;27.680;85.304;2023-12-14T04:11:42;12.10;98.90
50907;DHT22;36882;27.680;85.304;2023-12-14T04:14:12;12.10;99.30
50907;DHT22;36882;27.680;85.304;2023-12-14T04:16:43;12.30;99.20
50907;DHT22;36882;27.680;85.304;2023-12-14T04:19:13;12.20;99.30
50907;DHT22;36882;27.680;85.304;2023-12-14T04:21:44;12.30;99.30
50907;DHT22;36882;27.680;85.304;2023-12-14T04:24:15;12.50;99.00
50907;DHT22;36882;27.680;85.304;2023-12-14T04:26:45;12.50;98.80
50907;DHT22;36882;27.680;85.304;2023-12-14T04:29:15;12.60;98.30
50907;DHT22;36882;27.680;85.304;2023-12-14T04:31:46;12.50;98.30
50907;DHT22;36882;27.680;85.304;2023-12-14T04:34:16;12.60;97.90
50907;DHT22;36882;27.680;85.304;2023-12-14T04:36:49;12.70;98.00
50907;DHT22;36882;27.680;85.304;2023-12-14T04:39:19;12.70;98.20
50907;DHT22;36882;27.680;85.304;2023-12-14T04:41:50;12.70;97.80
50907;DHT22;36882;27.680;85.304;2023-12-14T04:44:22;12.70;97.60
50907;DHT22;36882;27.680;85.304;2023-12-14T04:46:53;12.80;98.00
50907;DHT22;36882;27.680;85.304;2023-12-14T04:49:23;13.10;98.00
50907;DHT22;36882;27.680;85.304;2023-12-14T04:51:55;13.10;97.40
50907;DHT22;36882;27.680;85.304;2023-12-14T04:54:25;13.10;97.30
50907;DHT22;36882;27.680;85.304;2023-12-14T04:56:56;13.30;97.00
50907;DHT22;36882;27.680;85.304;2023-12-14T04:59:26;13.40;96.10
50907;DHT22;36882;27.680;85.304;2023-12-14T05:01:56;13.50;96.20
50907;DHT22;36882;27.680;85.304;2023-12-14T05:04:27;13.50;96.50
50907;DHT22;36882;27.680;85.304;2023-12-14T05:06:58;13.50;96.60
50907;DHT22;36882;27.680;85.304;2023-12-14T05:09:29;13.60;96.60
50907;DHT22;36882;27.680;85.304;2023-12-14T05:12:11;13.70;96.20
50907;DHT22;36882;27.680;85.304;2023-12-14T05:14:42;13.70;95.30
50907;DHT22;36882;27.680;85.304;2023-12-14T05:17:16;13.80;95.60
50907;DHT22;36882;27.680;85.304;2023-12-14T05:19:47;13.90;95.50
50907;DHT22;36882;27.680;85.304;2023-12-14T05:22:17;14.10;95.10
50907;DHT22;36882;27.680;85.304;2023-12-14T05:24:48;14.10;94.70
50907;DHT22;36882;27.680;85.304;2023-12-14T05:27:17;14.00;94.60
50907;DHT22;36882;27.680;85.304;2023-12-14T05:29:48;14.20;94.80
50907;DHT22;36882;27.680;85.304;2023-12-14T05:32:18;14.30;94.10
50907;DHT22;36882;27.680;85.304;2023-12-14T05:34:51;14.30;94.30
50907;DHT22;36882;27.680;85.304;2023-12-14T05:37:21;14.40;93.60
50907;DHT22;36882;27.680;85.304;2023-12-14T05:39:51;14.40;92.30
50907;DHT22;36882;27.680;85.304;2023-12-14T05:42:22;14.50;92.60
50907;DHT22;36882;27.680;85.304;2023-12-14T05:44:52;14.50;92.90
50907;DHT22;36882;27.680;85.304;2023-12-14T05:47:23;14.70;92.80
50907;DHT22;36882;27.680;85.304;2023-12-14T05:49:55;14.60;92.30
50907;DHT22;36882;27.680;85.304;2023-12-14T05:52:26;14.50;92.90
50907;DHT22;36882;27.680;85.304;2023-12-14T05:54:56;14.80;91.00
50907;DHT22;36882;27.680;85.304;2023-12-14T05:57:31;14.80;91.10
50907;DHT22;36882;27.680;85.304;2023-12-14T06:00:03;14.80;90.60
50907;DHT22;36882;27.680;85.304;2023-12-14T06:02:33;14.70;90.70
50907;DHT22;36882;27.680;85.304;2023-12-14T06:05:07;14.80;90.70
50907;DHT22;36882;27.680;85.304;2023-12-14T06:07:38;14.90;91.30
50907;DHT22;36882;27.680;85.304;2023-12-14T06:10:10;15.10;90.40
50907;DHT22;36882;27.680;85.304;2023-12-14T06:12:41;15.20;90.50
50907;DHT22;36882;27.680;85.304;2023-12-14T06:15:11;15.20;90.30
50907;DHT22;36882;27.680;85.304;2023-12-14T06:17:42;15.20;89.70
50907;DHT22;36882;27.680;85.304;2023-12-14T06:20:13;15.40;87.70
50907;DHT22;36882;27.680;85.304;2023-12-14T06:22:43;15.30;87.90
50907;DHT22;36882;27.680;85.304;2023-12-14T06:25:13;15.30;88.20
50907;DHT22;36882;27.680;85.304;2023-12-14T06:27:43;15.40;87.90
50907;DHT22;36882;27.680;85.304;2023-12-14T06:30:14;15.60;86.30
50907;DHT22;36882;27.680;85.304;2023-12-14T06:32:45;15.50;86.20
50907;DHT22;36882;27.680;85.304;2023-12-14T06:35:17;15.50;87.50
50907;DHT22;36882;27.680;85.304;2023-12-14T06:37:47;15.50;86.30
50907;DHT22;36882;27.680;85.304;2023-12-14T06:40:18;15.60;84.20
50907;DHT22;36882;27.680;85.304;2023-12-14T06:42:49;15.60;86.20
50907;DHT22;36882;27.680;85.304;2023-12-14T06:45:19;15.50;84.50
50907;DHT22;36882;27.680;85.304;2023-12-14T06:47:49;15.50;85.10
50907;DHT22;36882;27.680;85.304;2023-12-14T06:50:20;15.90;82.70
50907;DHT22;36882;27.680;85.304;2023-12-14T06:52:50;15.90;82.70
50907;DHT22;36882;27.680;85.304;2023-12-14T06:55:21;15.90;82.50
50907;DHT22;36882;27.680;85.304;2023-12-14T06:57:50;15.90;83.30
50907;DHT22;36882;27.680;85.304;2023-12-14T07:00:21;16.00;84.80
50907;DHT22;36882;27.680;85.304;2023-12-14T07:02:51;16.00;85.70
50907;DHT22;36882;27.680;85.304;2023-12-14T07:05:23;16.00;84.30
50907;DHT22;36882;27.680;85.304;2023-12-14T07:07:54;16.20;85.30
50907;DHT22;36882;27.680;85.304;2023-12-14T07:10:26;16.20;85.00
50907;DHT22;36882;27.680;85.304;2023-12-14T07:12:56;16.30;83.30
50907;DHT22;36882;27.680;85.304;2023-12-14T07:15:26;16.30;84.10
50907;DHT22;36882;27.680;85.304;2023-12-14T07:17:56;16.40;83.50
50907;DHT22;36882;27.680;85.304;2023-12-14T07:20:27;16.40;80.00
50907;DHT22;36882;27.680;85.304;2023-12-14T07:22:57;16.20;79.50
50907;DHT22;36882;27.680;85.304;2023-12-14T07:25:28;16.30;79.30
50907;DHT22;36882;27.680;85.304;2023-12-14T07:27:59;16.30;80.80
50907;DHT22;36882;27.680;85.304;2023-12-14T07:30:29;16.40;82.90
50907;DHT22;36882;27.680;85.304;2023-12-14T07:32:59;16.40;83.40
50907;DHT22;36882;27.680;85.304;2023-12-14T07:35:30;16.40;83.50
50907;DHT22;36882;27.680;85.304;2023-12-14T07:38:00;16.40;83.00
50907;DHT22;36882;27.680;85.304;2023-12-14T07:40:31;16.40;83.10
50907;DHT22;36882;27.680;85.304;2023-12-14T07:43:02;16.50;82.70
50907;DHT22;36882;27.680;85.304;2023-12-14T07:45:32;16.50;80.90
50907;DHT22;36882;27.680;85.304;2023-12-14T07:48:02;16.50;82.40
50907;DHT22;36882;27.680;85.304;2023-12-14T07:50:33;16.70;80.60
50907;DHT22;36882;27.680;85.304;2023-12-14T07:53:04;16.50;81.70
50907;DHT22;36882;27.680;85.304;2023-12-14T07:55:35;16.60;82.40
50907;DHT22;36882;27.680;85.304;2023-12-14T07:58:06;16.60;82.20
50907;DHT22;36882;27.680;85.304;2023-12-14T08:00:36;16.60;82.80
50907;DHT22;36882;27.680;85.304;2023-12-14T08:03:07;16.70;81.90
50907;DHT22;36882;27.680;85.304;2023-12-14T08:05:37;16.80;79.70
50907;DHT22;36882;27.680;85.304;2023-12-14T08:08:08;16.80;80.80
50907;DHT22;36882;27.680;85.304;2023-12-14T08:10:38;16.80;82.10
50907;DHT22;36882;27.680;85.304;2023-12-14T08:13:33;16.80;81.80
50907;DHT22;36882;27.680;85.304;2023-12-14T08:16:06;16.80;81.70
50907;DHT22;36882;27.680;85.304;2023-12-14T08:18:43;16.90;81.30
50907;DHT22;36882;27.680;85.304;2023-12-14T08:21:18;16.90;81.80
50907;DHT22;36882;27.680;85.304;2023-12-14T08:23:49;17.10;80.80
50907;DHT22;36882;27.680;85.304;2023-12-14T08:26:19;17.00;82.00
50907;DHT22;36882;27.680;85.304;2023-12-14T08:28:50;17.00;83.00
50907;DHT22;36882;27.680;85.304;2023-12-14T08:31:20;17.00;83.00
50907;DHT22;36882;27.680;85.304;2023-12-14T08:33:50;16.80;82.60
50907;DHT22;36882;27.680;85.304;2023-12-14T08:36:22;16.80;82.80
50907;DHT22;36882;27.680;85.304;2023-12-14T08:38:52;16.90;83.10
50907;DHT22;36882;27.680;85.304;2023-12-14T08:41:24;16.80;83.10
50907;DHT22;36882;27.680;85.304;2023-12-14T08:43:54;16.70;84.00
50907;DHT22;36882;27.680;85.304;2023-12-14T08:46:25;16.70;84.50
50907;DHT22;36882;27.680;85.304;2023-12-14T08:48:55;16.80;85.00
50907;DHT22;36882;27.680;85.304;2023-12-14T08:51:25;16.80;83.90
50907;DHT22;36882;27.680;85.304;2023-12-14T08:53:56;16.70;83.70
50907;DHT22;36882;27.680;85.304;2023-12-14T08:56:26;16.70;85.50
50907;DHT22;36882;27.680;85.304;2023-12-14T08:58:58;16.60;87.30
50907;DHT22;36882;27.680;85.304;2023-12-14T09:01:30;16.50;86.60
50907;DHT22;36882;27.680;85.304;2023-12-14T09:04:13;16.30;87.90
50907;DHT22;36882;27.680;85.304;2023-12-14T09:06:44;16.20;87.30
50907;DHT22;36882;27.680;85.304;2023-12-14T09:09:15;16.10;88.20
50907;DHT22;36882;27.680;85.304;2023-12-14T09:11:46;16.00;88.00
50907;DHT22;36882;27.680;85.304;2023-12-14T09:14:19;15.90;88.90
50907;DHT22;36882;27.680;85.304;2023-12-14T09:16:50;16.00;89.40
50907;DHT22;36882;27.680;85.304;2023-12-14T09:19:21;16.00;90.10
50907;DHT22;36882;27.680;85.304;2023-12-14T09:21:50;15.90;90.40
50907;DHT22;36882;27.680;85.304;2023-12-14T09:24:21;15.80;90.90
50907;DHT22;36882;27.680;85.304;2023-12-14T09:26:52;15.70;91.10
50907;DHT22;36882;27.680;85.304;2023-12-14T09:29:22;15.70;91.30
50907;DHT22;36882;27.680;85.304;2023-12-14T09:31:53;15.60;91.20
50907;DHT22;36882;27.680;85.304;2023-12-14T09:34:24;15.40;91.40
50907;DHT22;36882;27.680;85.304;2023-12-14T09:36:55;15.50;91.50
50907;DHT22;36882;27.680;85.304;2023-12-14T09:39:28;15.40;91.70
50907;DHT22;36882;27.680;85.304;2023-12-14T09:42:05;15.20;91.70
50907;DHT22;36882;27.680;85.304;2023-12-14T09:44:37;15.30;91.90
50907;DHT22;36882;27.680;85.304;2023-12-14T09:47:08;15.30;92.00
50907;DHT22;36882;27.680;85.304;2023-12-14T09:49:40;15.30;92.20
50907;DHT22;36882;27.680;85.304;2023-12-14T09:52:13;15.20;92.00
50907;DHT22;36882;27.680;85.304;2023-12-14T09:54:44;15.20;92.00
50907;DHT22;36882;27.680;85.304;2023-12-14T09:57:16;15.10;91.90
50907;DHT22;36882;27.680;85.304;2023-12-14T09:59:53;15.10;92.00
50907;DHT22;36882;27.680;85.304;2023-12-14T10:02:27;15.10;91.80
50907;DHT22;36882;27.680;85.304;2023-12-14T10:04:58;15.00;92.20
50907;DHT22;36882;27.680;85.304;2023-12-14T10:07:28;15.00;92.50
50907;DHT22;36882;27.680;85.304;2023-12-14T10:10:12;14.90;92.60
50907;DHT22;36882;27.680;85.304;2023-12-14T10:15:27;14.90;92.30
50907;DHT22;36882;27.680;85.304;2023-12-14T10:17:57;14.90;92.50
50907;DHT22;36882;27.680;85.304;2023-12-14T10:20:28;14.80;93.40
50907;DHT22;36882;27.680;85.304;2023-12-14T10:23:04;14.80;93.20
50907;DHT22;36882;27.680;85.304;2023-12-14T10:25:35;14.80;93.10
50907;DHT22;36882;27.680;85.304;2023-12-14T10:28:07;14.80;93.50
50907;DHT22;36882;27.680;85.304;2023-12-14T10:30:37;14.70;93.50
50907;DHT22;36882;27.680;85.304;2023-12-14T10:33:08;14.70;93.90
50907;DHT22;36882;27.680;85.304;2023-12-14T10:35:39;14.70;94.20
50907;DHT22;36882;27.680;85.304;2023-12-14T10:38:11;14.60;94.50
50907;DHT22;36882;27.680;85.304;2023-12-14T10:40:43;14.70;94.60
50907;DHT22;36882;27.680;85.304;2023-12-14T10:43:16;14.60;94.90
50907;DHT22;36882;27.680;85.304;2023-12-14T10:45:56;14.60;95.10
50907;DHT22;36882;27.680;85.304;2023-12-14T10:48:26;14.60;95.20
50907;DHT22;36882;27.680;85.304;2023-12-14T10:51:01;14.50;95.70
50907;DHT22;36882;27.680;85.304;2023-12-14T10:53:33;14.50;95.80
50907;DHT22;36882;27.680;85.304;2023-12-14T10:56:06;14.40;95.90
50907;DHT22;36882;27.680;85.304;2023-12-14T10:58:53;14.40;96.00
50907;DHT22;36882;27.680;85.304;2023-12-14T11:01:24;14.30;96.30
50907;DHT22;36882;27.680;85.304;2023-12-14T11:04:02;14.30;96.20
50907;DHT22;36882;27.680;85.304;2023-12-14T11:06:33;14.30;96.20
50907;DHT22;36882;27.680;85.304;2023-12-14T11:09:09;14.30;96.40
50907;DHT22;36882;27.680;85.304;2023-12-14T11:14:29;14.30;96.60
50907;DHT22;36882;27.680;85.304;2023-12-14T11:17:06;14.20;96.70
50907;DHT22;36882;27.680;85.304;2023-12-14T11:19:37;14.00;97.00
50907;DHT22;36882;27.680;85.304;2023-12-14T11:22:12;14.10;97.20
50907;DHT22;36882;27.680;85.304;2023-12-14T11:24:52;13.90;97.30
50907;DHT22;36882;27.680;85.304;2023-12-14T11:27:28;13.80;97.50
50907;DHT22;36882;27.680;85.304;2023-12-14T11:29:59;13.80;97.60
50907;DHT22;36882;27.680;85.304;2023-12-14T11:32:30;13.80;97.70
50907;DHT22;36882;27.680;85.304;2023-12-14T11:35:01;13.50;98.00
50907;DHT22;36882;27.680;85.304;2023-12-14T11:37:31;13.60;98.00
50907;DHT22;36882;27.680;85.304;2023-12-14T11:40:07;13.60;98.10
50907;DHT22;36882;27.680;85.304;2023-12-14T11:42:39;13.60;98.20
50907;DHT22;36882;27.680;85.304;2023-12-14T11:45:10;13.60;98.10
50907;DHT22;36882;27.680;85.304;2023-12-14T11:47:40;13.50;98.40
50907;DHT22;36882;27.680;85.304;2023-12-14T11:50:11;13.50;98.70
50907;DHT22;36882;27.680;85.304;2023-12-14T11:52:42;13.50;98.90
50907;DHT22;36882;27.680;85.304;2023-12-14T11:55:12;13.30;99.30
50907;DHT22;36882;27.680;85.304;2023-12-14T11:57:48;13.40;99.40
50907;DHT22;36882;27.680;85.304;2023-12-14T12:00:24;13.30;99.60
50907;DHT22;36882;27.680;85.304;2023-12-14T12:03:16;13.40;99.70
50907;DHT22;36882;27.680;85.304;2023-12-14T12:05:51;13.30;99.80
50907;DHT22;36882;27.680;85.304;2023-12-14T12:08:22;13.30;99.90
50907;DHT22;36882;27.680;85.304;2023-12-14T12:10:53;13.30;99.90
50907;DHT22;36882;27.680;85.304;2023-12-14T12:13:23;13.30;99.90
50907;DHT22;36882;27.680;85.304;2023-12-14T12:15:54;13.20;99.90
50907;DHT22;36882;27.680;85.304;2023-12-14T12:18:25;13.10;99.90
50907;DHT22;36882;27.680;85.304;2023-12-14T12:20:55;13.20;99.90
50907;DHT22;36882;27.680;85.304;2023-12-14T12:23:30;13.10;99.90
50907;DHT22;36882;27.680;85.304;2023-12-14T12:26:01;13.10;99.90
50907;DHT22;36882;27.680;85.304;2023-12-14T12:28:31;13.00;99.90
50907;DHT22;36882;27.680;85.304;2023-12-14T12:31:01;13.10;99.90
50907;DHT22;36882;27.680;85.304;2023-12-14T12:33:32;13.10;99.90
50907;DHT22;36882;27.680;85.304;2023-12-14T12:36:07;13.00;99.90
50907;DHT22;36882;27.680;85.304;2023-12-14T12:38:37;12.90;99.90
50907;DHT22;36882;27.680;85.304;2023-12-14T12:41:10;12.90;99.90
50907;DHT22;36882;27.680;85.304;2023-12-14T12:43:40;12.90;99.90
50907;DHT22;36882;27.680;85.304;2023-12-14T12:46:10;13.00;99.90
50907;DHT22;36882;27.680;85.304;2023-12-14T12:48:41;12.90;99.90
50907;DHT22;36882;27.680;85.304;2023-12-14T12:51:12;12.80;99.90
50907;DHT22;36882;27.680;85.304;2023-12-14T12:53:42;12.80;99.90
50907;DHT22;36882;27.680;85.304;2023-12-14T12:56:14;12.80;99.90
50907;DHT22;36882;27.680;85.304;2023-12-14T12:58:44;12.80;99.90
50907;DHT22;36882;27.680;85.304;2023-12-14T13:01:14;12.80;99.90
50907;DHT22;36882;27.680;85.304;2023-12-14T13:03:45;12.70;99.90
50907;DHT22;36882;27.680;85.304;2023-12-14T13:06:15;12.70;99.90
50907;DHT22;36882;27.680;85.304;2023-12-14T13:08:46;12.70;99.90
50907;DHT22;36882;27.680;85.304;2023-12-14T13:11:16;12.70;99.90
50907;DHT22;36882;27.680;85.304;2023-12-14T13:13:47;12.60;99.90
50907;DHT22;36882;27.680;85.304;2023-12-14T13:16:17;12.60;99.90
50907;DHT22;36882;27.680;85.304;2023-12-14T13:18:48;12.70;99.90
50907;DHT22;36882;27.680;85.304;2023-12-14T13:21:17;12.70;99.90
50907;DHT22;36882;27.680;85.304;2023-12-14T13:23:49;12.60;99.90
50907;DHT22;36882;27.680;85.304;2023-12-14T13:26:21;12.60;99.90
50907;DHT22;36882;27.680;85.304;2023-12-14T13:28:54;12.50;99.90
50907;DHT22;36882;27.680;85.304;2023-12-14T13:31:25;12.40;99.90
50907;DHT22;36882;27.680;85.304;2023-12-14T13:33:55;12.40;99.90
50907;DHT22;36882;27.680;85.304;2023-12-14T13:36:25;12.40;99.90
50907;DHT22;36882;27.680;85.304;2023-12-14T13:38:55;12.40;99.90
50907;DHT22;36882;27.680;85.304;2023-12-14T13:41:26;12.50;99.90
50907;DHT22;36882;27.680;85.304;2023-12-14T13:43:56;12.50;99.90
50907;DHT22;36882;27.680;85.304;2023-12-14T13:46:27;12.40;99.90
50907;DHT22;36882;27.680;85.304;2023-12-14T13:48:57;12.30;99.90
50907;DHT22;36882;27.680;85.304;2023-12-14T13:51:27;12.40;99.90
50907;DHT22;36882;27.680;85.304;2023-12-14T13:53:58;12.30;99.90
50907;DHT22;36882;27.680;85.304;2023-12-14T13:56:28;12.30;99.90
50907;DHT22;36882;27.680;85.304;2023-12-14T13:58:59;12.20;99.90
50907;DHT22;36882;27.680;85.304;2023-12-14T14:01:30;12.20;99.90
50907;DHT22;36882;27.680;85.304;2023-12-14T14:04:00;12.20;99.90
50907;DHT22;36882;27.680;85.304;2023-12-14T14:06:30;12.10;99.90
50907;DHT22;36882;27.680;85.304;2023-12-14T14:09:01;12.10;99.90
50907;DHT22;36882;27.680;85.304;2023-12-14T14:11:33;12.10;99.90
50907;DHT22;36882;27.680;85.304;2023-12-14T14:14:04;12.10;99.90
50907;DHT22;36882;27.680;85.304;2023-12-14T14:16:35;12.10;99.90
50907;DHT22;36882;27.680;85.304;2023-12-14T14:19:05;12.20;99.90
50907;DHT22;36882;27.680;85.304;2023-12-14T14:21:36;12.10;99.90
50907;DHT22;36882;27.680;85.304;2023-12-14T14:24:06;12.10;99.90
50907;DHT22;36882;27.680;85.304;2023-12-14T14:26:36;12.10;99.90
50907;DHT22;36882;27.680;85.304;2023-12-14T14:29:07;12.00;99.90
50907;DHT22;36882;27.680;85.304;2023-12-14T14:31:40;12.00;99.90
50907;DHT22;36882;27.680;85.304;2023-12-14T14:34:11;12.00;99.90
50907;DHT22;36882;27.680;85.304;2023-12-14T14:36:41;11.90;99.90
50907;DHT22;36882;27.680;85.304;2023-12-14T14:39:14;11.90;99.90
50907;DHT22;36882;27.680;85.304;2023-12-14T14:41:48;11.80;99.90
50907;DHT22;36882;27.680;85.304;2023-12-14T14:44:18;11.70;99.90
50907;DHT22;36882;27.680;85.304;2023-12-14T14:46:49;11.80;99.90
50907;DHT22;36882;27.680;85.304;2023-12-14T14:49:20;11.70;99.90
50907;DHT22;36882;27.680;85.304;2023-12-14T14:51:51;11.70;99.90
50907;DHT22;36882;27.680;85.304;2023-12-14T14:54:22;11.70;99.90
50907;DHT22;36882;27.680;85.304;2023-12-14T14:56:52;11.70;99.90
50907;DHT22;36882;27.680;85.304;2023-12-14T14:59:23;11.70;99.90
50907;DHT22;36882;27.680;85.304;2023-12-14T15:01:53;11.80;99.90
50907;DHT22;36882;27.680;85.304;2023-12-14T15:04:25;11.70;99.90
50907;DHT22;36882;27.680;85.304;2023-12-14T15:06:55;11.70;99.90
50907;DHT22;36882;27.680;85.304;2023-12-14T15:09:26;11.70;99.90
50907;DHT22;36882;27.680;85.304;2023-12-14T15:11:56;11.80;99.90
50907;DHT22;36882;27.680;85.304;2023-12-14T15:14:26;11.70;99.90
50907;DHT22;36882;27.680;85.304;2023-12-14T15:16:56;11.60;99.90
50907;DHT22;36882;27.680;85.304;2023-12-14T15:19:27;11.60;99.90
50907;DHT22;36882;27.680;85.304;2023-12-14T15:21:57;11.60;99.90
50907;DHT22;36882;27.680;85.304;2023-12-14T15:24:27;11.50;99.90
50907;DHT22;36882;27.680;85.304;2023-12-14T15:26:58;11.50;99.90
50907;DHT22;36882;27.680;85.304;2023-12-14T15:29:28;11.40;99.90
50907;DHT22;36882;27.680;85.304;2023-12-14T15:32:00;11.50;99.90
50907;DHT22;36882;27.680;85.304;2023-12-14T15:34:30;11.40;99.90
50907;DHT22;36882;27.680;85.304;2023-12-14T15:37:00;11.30;99.90
50907;DHT22;36882;27.680;85.304;2023-12-14T15:39:31;11.30;99.90
50907;DHT22;36882;27.680;85.304;2023-12-14T15:42:02;11.40;99.90
50907;DHT22;36882;27.680;85.304;2023-12-14T15:44:33;11.30;99.90
50907;DHT22;36882;27.680;85.304;2023-12-14T15:47:03;11.30;99.90
50907;DHT22;36882;27.680;85.304;2023-12-14T15:49:34;11.20;99.90